sensor_id;sensor_type;location;lat;lon;timestamp;pressure;altitude;pressure_sealevel;temperature;humidity
2681;BME280;1350;42.134;24.708;2024-01-16T00:01:46;98083.13;;;2.90;100.00
2681;BME280;1350;42.134;24.708;2024-01-16T00:04:13;98084.16;;;2.68;100.00
2681;BME280;1350;42.134;24.708;2024-01-16T00:06:40;98088.00;;;2.79;100.00
2681;BME280;1350;42.134;24.708;2024-01-16T00:09:07;98087.59;;;2.88;100.00
2681;BME280;1350;42.134;24.708;2024-01-16T00:11:39;98077.97;;;2.70;100.00
2681;BME280;1350;42.134;24.708;2024-01-16T00:14:08;98085.38;;;2.79;100.00
2681;BME280;1350;42.134;24.708;2024-01-16T00:16:41;98090.75;;;2.76;100.00
2681;BME280;1350;42.134;24.708;2024-01-16T00:19:09;98088.00;;;2.79;100.00
2681;BME280;1350;42.134;24.708;2024-01-16T00:21:38;98088.00;;;2.79;100.00
2681;BME280;1350;42.134;24.708;2024-01-16T00:24:06;98094.06;;;2.80;100.00
2681;BME280;1350;42.134;24.708;2024-01-16T00:26:33;98095.19;;;2.74;100.00
2681;BME280;1350;42.134;24.708;2024-01-16T00:29:00;98104.53;;;2.80;100.00
2681;BME280;1350;42.134;24.708;2024-01-16T00:31:29;98108.19;;;2.57;100.00
2681;BME280;1350;42.134;24.708;2024-01-16T00:33:56;98099.75;;;2.51;100.00
2681;BME280;1350;42.134;24.708;2024-01-16T00:36:22;98103.88;;;2.56;100.00
2681;BME280;1350;42.134;24.708;2024-01-16T00:38:49;98095.91;;;2.59;100.00
2681;BME280;1350;42.134;24.708;2024-01-16T00:41:16;98108.06;;;2.40;100.00
2681;BME280;1350;42.134;24.708;2024-01-16T00:43:44;98114.03;;;2.44;100.00
2681;BME280;1350;42.134;24.708;2024-01-16T00:46:11;98105.53;;;2.39;100.00
2681;BME280;1350;42.134;24.708;2024-01-16T00:48:39;98090.41;;;2.45;100.00
2681;BME280;1350;42.134;24.708;2024-01-16T00:51:06;98081.81;;;2.62;100.00
2681;BME280;1350;42.134;24.708;2024-01-16T00:53:33;98084.72;;;2.56;100.00
2681;BME280;1350;42.134;24.708;2024-01-16T00:56:06;98078.38;;;2.61;100.00
2681;BME280;1350;42.134;24.708;2024-01-16T00:58:33;98082.47;;;2.67;100.00
2681;BME280;1350;42.134;24.708;2024-01-16T01:00:59;98081.75;;;2.63;100.00
2681;BME280;1350;42.134;24.708;2024-01-16T01:03:26;98073.84;;;2.65;100.00
2681;BME280;1350;42.134;24.708;2024-01-16T01:05:55;98067.13;;;2.59;100.00
2681;BME280;1350;42.134;24.708;2024-01-16T01:08:22;98066.34;;;2.57;100.00
2681;BME280;1350;42.134;24.708;2024-01-16T01:10:49;98068.06;;;2.58;100.00
2681;BME280;1350;42.134;24.708;2024-01-16T01:13:16;98066.19;;;2.60;100.00
2681;BME280;1350;42.134;24.708;2024-01-16T01:15:43;98068.06;;;2.58;100.00
2681;BME280;1350;42.134;24.708;2024-01-16T01:18:10;98063.41;;;2.45;100.00
2681;BME280;1350;42.134;24.708;2024-01-16T01:20:37;98071.00;;;2.31;100.00
2681;BME280;1350;42.134;24.708;2024-01-16T01:23:05;98053.03;;;2.62;100.00
2681;BME280;1350;42.134;24.708;2024-01-16T01:25:32;98049.91;;;2.54;100.00
2681;BME280;1350;42.134;24.708;2024-01-16T01:27:59;98039.72;;;2.48;100.00
2681;BME280;1350;42.134;24.708;2024-01-16T01:30:26;98040.66;;;2.47;100.00
2681;BME280;1350;42.134;24.708;2024-01-16T01:32:53;98029.56;;;2.42;100.00
2681;BME280;1350;42.134;24.708;2024-01-16T01:35:20;98026.19;;;2.40;100.00
2681;BME280;1350;42.134;24.708;2024-01-16T01:37:47;98036.38;;;2.46;100.00
2681;BME280;1350;42.134;24.708;2024-01-16T01:40:16;98039.72;;;2.48;100.00
2681;BME280;1350;42.134;24.708;2024-01-16T01:42:42;98030.97;;;2.30;100.00
2681;BME280;1350;42.134;24.708;2024-01-16T01:45:10;98039.19;;;2.41;100.00
2681;BME280;1350;42.134;24.708;2024-01-16T01:47:37;98047.47;;;2.31;100.00
2681;BME280;1350;42.134;24.708;2024-01-16T01:50:06;98048.13;;;2.36;100.00
2681;BME280;1350;42.134;24.708;2024-01-16T01:52:34;98056.56;;;2.42;100.00
2681;BME280;1350;42.134;24.708;2024-01-16T01:55:03;98070.44;;;2.24;100.00
2681;BME280;1350;42.134;24.708;2024-01-16T01:57:34;98058.22;;;2.25;100.00
2681;BME280;1350;42.134;24.708;2024-01-16T02:00:01;98066.38;;;2.37;100.00
2681;BME280;1350;42.134;24.708;2024-01-16T02:02:30;98055.84;;;2.39;100.00
2681;BME280;1350;42.134;24.708;2024-01-16T02:04:57;98048.84;;;2.39;100.00
2681;BME280;1350;42.134;24.708;2024-01-16T02:07:25;98053.84;;;2.25;100.00
2681;BME280;1350;42.134;24.708;2024-01-16T02:09:52;98057.19;;;2.29;100.00
2681;BME280;1350;42.134;24.708;2024-01-16T02:12:19;98055.09;;;2.17;100.00
2681;BME280;1350;42.134;24.708;2024-01-16T02:14:47;98053.38;;;2.16;100.00
2681;BME280;1350;42.134;24.708;2024-01-16T02:17:14;98057.38;;;2.24;100.00
2681;BME280;1350;42.134;24.708;2024-01-16T02:19:41;98056.78;;;2.18;100.00
2681;BME280;1350;42.134;24.708;2024-01-16T02:22:09;98058.94;;;2.08;100.00
2681;BME280;1350;42.134;24.708;2024-01-16T02:24:42;98062.47;;;2.07;100.00
2681;BME280;1350;42.134;24.708;2024-01-16T02:27:09;98063.38;;;2.06;100.00
2681;BME280;1350;42.134;24.708;2024-01-16T02:29:40;98060.84;;;2.05;100.00
2681;BME280;1350;42.134;24.708;2024-01-16T02:32:08;98065.56;;;1.97;100.00
2681;BME280;1350;42.134;24.708;2024-01-16T02:34:35;98061.75;;;1.84;100.00
2681;BME280;1350;42.134;24.708;2024-01-16T02:37:01;98063.28;;;1.89;100.00
2681;BME280;1350;42.134;24.708;2024-01-16T02:39:28;98072.06;;;1.87;100.00
2681;BME280;1350;42.134;24.708;2024-01-16T02:41:57;98063.22;;;1.91;100.00
2681;BME280;1350;42.134;24.708;2024-01-16T02:44:24;98070.31;;;2.07;100.00
2681;BME280;1350;42.134;24.708;2024-01-16T02:46:51;98064.56;;;1.99;100.00
2681;BME280;1350;42.134;24.708;2024-01-16T02:49:18;98049.81;;;1.98;100.00
2681;BME280;1350;42.134;24.708;2024-01-16T02:51:45;98047.41;;;2.14;100.00
2681;BME280;1350;42.134;24.708;2024-01-16T02:54:12;98060.75;;;2.06;100.00
2681;BME280;1350;42.134;24.708;2024-01-16T02:56:39;98066.84;;;2.07;100.00
2681;BME280;1350;42.134;24.708;2024-01-16T02:59:09;98068.53;;;2.08;100.00
2681;BME280;1350;42.134;24.708;2024-01-16T03:01:36;98077.16;;;2.10;100.00
2681;BME280;1350;42.134;24.708;2024-01-16T03:04:03;98073.06;;;2.04;100.00
2681;BME280;1350;42.134;24.708;2024-01-16T03:06:30;98091.28;;;2.06;100.00
2681;BME280;1350;42.134;24.708;2024-01-16T03:08:57;98081.53;;;2.09;100.00
2681;BME280;1350;42.134;24.708;2024-01-16T03:11:24;98085.53;;;2.18;100.00
2681;BME280;1350;42.134;24.708;2024-01-16T03:13:52;98080.06;;;2.04;100.00
2681;BME280;1350;42.134;24.708;2024-01-16T03:16:20;98075.88;;;2.00;100.00
2681;BME280;1350;42.134;24.708;2024-01-16T03:18:47;98078.75;;;2.14;100.00
2681;BME280;1350;42.134;24.708;2024-01-16T03:21:14;98082.59;;;2.05;100.00
2681;BME280;1350;42.134;24.708;2024-01-16T03:23:41;98079.84;;;2.08;100.00
2681;BME280;1350;42.134;24.708;2024-01-16T03:26:12;98074.03;;;2.02;100.00
2681;BME280;1350;42.134;24.708;2024-01-16T03:28:39;98072.59;;;2.15;100.00
2681;BME280;1350;42.134;24.708;2024-01-16T03:31:06;98075.28;;;2.13;100.00
2681;BME280;1350;42.134;24.708;2024-01-16T03:33:34;98074.94;;;2.21;100.00
2681;BME280;1350;42.134;24.708;2024-01-16T03:36:07;98078.34;;;2.23;100.00
2681;BME280;1350;42.134;24.708;2024-01-16T03:38:35;98086.97;;;2.25;100.00
2681;BME280;1350;42.134;24.708;2024-01-16T03:41:02;98097.28;;;2.08;100.00
2681;BME280;1350;42.134;24.708;2024-01-16T03:43:32;98096.84;;;2.18;100.00
2681;BME280;1350;42.134;24.708;2024-01-16T03:45:59;98109.06;;;2.18;100.00
2681;BME280;1350;42.134;24.708;2024-01-16T03:48:26;98110.88;;;2.16;100.00
2681;BME280;1350;42.134;24.708;2024-01-16T03:50:54;98110.69;;;2.20;100.00
2681;BME280;1350;42.134;24.708;2024-01-16T03:53:21;98114.28;;;1.98;100.00
2681;BME280;1350;42.134;24.708;2024-01-16T03:55:48;98110.00;;;2.17;100.00
2681;BME280;1350;42.134;24.708;2024-01-16T03:58:16;98112.69;;;2.15;100.00
2681;BME280;1350;42.134;24.708;2024-01-16T04:00:43;98130.38;;;2.09;100.00
2681;BME280;1350;42.134;24.708;2024-01-16T04:03:10;98138.94;;;2.12;100.00
2681;BME280;1350;42.134;24.708;2024-01-16T04:05:38;98135.47;;;2.12;100.00
2681;BME280;1350;42.134;24.708;2024-01-16T04:08:07;98133.44;;;2.18;100.00
2681;BME280;1350;42.134;24.708;2024-01-16T04:10:34;98147.63;;;2.13;100.00
2681;BME280;1350;42.134;24.708;2024-01-16T04:13:01;98150.88;;;1.98;100.00
2681;BME280;1350;42.134;24.708;2024-01-16T04:15:28;98168.31;;;2.17;100.00
2681;BME280;1350;42.134;24.708;2024-01-16T04:17:55;98169.25;;;2.16;100.00
2681;BME280;1350;42.134;24.708;2024-01-16T04:20:22;98165.59;;;2.20;100.00
2681;BME280;1350;42.134;24.708;2024-01-16T04:22:49;98175.81;;;2.05;100.00
2681;BME280;1350;42.134;24.708;2024-01-16T04:25:17;98188.25;;;2.00;100.00
2681;BME280;1350;42.134;24.708;2024-01-16T04:27:44;98175.19;;;1.78;100.00
2681;BME280;1350;42.134;24.708;2024-01-16T04:30:12;98188.66;;;2.11;100.00
2681;BME280;1350;42.134;24.708;2024-01-16T04:32:39;98199.25;;;2.28;100.00
2681;BME280;1350;42.134;24.708;2024-01-16T04:35:07;98188.56;;;2.34;100.00
2681;BME280;1350;42.134;24.708;2024-01-16T04:37:34;98190.31;;;2.33;100.00
2681;BME280;1350;42.134;24.708;2024-01-16T04:40:02;98204.00;;;2.40;100.00
2681;BME280;1350;42.134;24.708;2024-01-16T04:42:32;98198.91;;;2.37;100.00
2681;BME280;1350;42.134;24.708;2024-01-16T04:44:59;98191.81;;;2.39;100.00
2681;BME280;1350;42.134;24.708;2024-01-16T04:47:26;98207.25;;;2.45;100.00
2681;BME280;1350;42.134;24.708;2024-01-16T04:49:53;98223.13;;;2.40;100.00
2681;BME280;1350;42.134;24.708;2024-01-16T04:52:20;98227.13;;;2.29;100.00
2681;BME280;1350;42.134;24.708;2024-01-16T04:54:47;98220.72;;;2.56;100.00
2681;BME280;1350;42.134;24.708;2024-01-16T04:57:14;98213.06;;;2.51;100.00
2681;BME280;1350;42.134;24.708;2024-01-16T04:59:42;98225.88;;;2.57;100.00
2681;BME280;1350;42.134;24.708;2024-01-16T05:02:09;98235.47;;;2.58;100.00
2681;BME280;1350;42.134;24.708;2024-01-16T05:04:37;98250.03;;;2.64;100.00
2681;BME280;1350;42.134;24.708;2024-01-16T05:07:04;98254.91;;;2.51;100.00
2681;BME280;1350;42.134;24.708;2024-01-16T05:09:31;98250.69;;;2.49;100.00
2681;BME280;1350;42.134;24.708;2024-01-16T05:11:58;98252.78;;;2.61;100.00
2681;BME280;1350;42.134;24.708;2024-01-16T05:14:25;98258.00;;;2.61;100.00
2681;BME280;1350;42.134;24.708;2024-01-16T05:16:53;98260.69;;;2.59;100.00
2681;BME280;1350;42.134;24.708;2024-01-16T05:19:20;98267.16;;;2.71;100.00
2681;BME280;1350;42.134;24.708;2024-01-16T05:21:47;98265.06;;;2.79;100.00
2681;BME280;1350;42.134;24.708;2024-01-16T05:24:14;98287.31;;;2.69;100.00
2681;BME280;1350;42.134;24.708;2024-01-16T05:26:41;98285.59;;;2.68;100.00
2681;BME280;1350;42.134;24.708;2024-01-16T05:29:08;98297.66;;;2.72;100.00
2681;BME280;1350;42.134;24.708;2024-01-16T05:31:39;98310.31;;;2.61;100.00
2681;BME280;1350;42.134;24.708;2024-01-16T05:34:08;98312.75;;;2.65;100.00
2681;BME280;1350;42.134;24.708;2024-01-16T05:36:35;98320.72;;;2.62;100.00
2681;BME280;1350;42.134;24.708;2024-01-16T05:39:02;98332.19;;;2.60;100.00
2681;BME280;1350;42.134;24.708;2024-01-16T05:41:32;98335.00;;;2.54;100.00
2681;BME280;1350;42.134;24.708;2024-01-16T05:43:59;98325.53;;;2.51;100.00
2681;BME280;1350;42.134;24.708;2024-01-16T05:46:28;98335.25;;;2.48;100.00
2681;BME280;1350;42.134;24.708;2024-01-16T05:48:57;98344.28;;;2.41;100.00
2681;BME280;1350;42.134;24.708;2024-01-16T05:51:27;98347.81;;;2.40;100.00
2681;BME280;1350;42.134;24.708;2024-01-16T05:53:54;98360.41;;;2.52;100.00
2681;BME280;1350;42.134;24.708;2024-01-16T05:56:21;98375.00;;;2.57;100.00
2681;BME280;1350;42.134;24.708;2024-01-16T05:58:48;98370.31;;;2.65;100.00
2681;BME280;1350;42.134;24.708;2024-01-16T06:01:15;98371.34;;;2.83;100.00
2681;BME280;1350;42.134;24.708;2024-01-16T06:03:42;98374.44;;;3.12;100.00
2681;BME280;1350;42.134;24.708;2024-01-16T06:06:12;98376.66;;;3.41;100.00
2681;BME280;1350;42.134;24.708;2024-01-16T06:08:40;98385.44;;;3.61;100.00
2681;BME280;1350;42.134;24.708;2024-01-16T06:11:07;98372.81;;;3.89;100.00
2681;BME280;1350;42.134;24.708;2024-01-16T06:13:34;98386.41;;;4.15;100.00
2681;BME280;1350;42.134;24.708;2024-01-16T06:16:01;98391.53;;;4.37;100.00
2681;BME280;1350;42.134;24.708;2024-01-16T06:18:28;98390.53;;;4.58;100.00
2681;BME280;1350;42.134;24.708;2024-01-16T06:20:55;98401.53;;;4.83;100.00
2681;BME280;1350;42.134;24.708;2024-01-16T06:23:22;98411.09;;;5.02;100.00
2681;BME280;1350;42.134;24.708;2024-01-16T06:25:51;98423.31;;;5.20;100.00
2681;BME280;1350;42.134;24.708;2024-01-16T06:28:18;98439.25;;;5.35;100.00
2681;BME280;1350;42.134;24.708;2024-01-16T06:30:45;98443.13;;;5.45;100.00
2681;BME280;1350;42.134;24.708;2024-01-16T06:33:12;98445.03;;;5.58;100.00
2681;BME280;1350;42.134;24.708;2024-01-16T06:35:39;98451.06;;;5.77;100.00
2681;BME280;1350;42.134;24.708;2024-01-16T06:38:06;98452.13;;;5.92;100.00
2681;BME280;1350;42.134;24.708;2024-01-16T06:40:33;98454.03;;;6.05;100.00
2681;BME280;1350;42.134;24.708;2024-01-16T06:43:03;98458.41;;;6.22;100.00
2681;BME280;1350;42.134;24.708;2024-01-16T06:45:31;98471.00;;;6.48;100.00
2681;BME280;1350;42.134;24.708;2024-01-16T06:47:58;98474.00;;;6.57;100.00
2681;BME280;1350;42.134;24.708;2024-01-16T06:50:25;98487.94;;;6.75;100.00
2681;BME280;1350;42.134;24.708;2024-01-16T06:52:52;98486.28;;;6.89;100.00
2681;BME280;1350;42.134;24.708;2024-01-16T06:55:18;98489.94;;;7.03;100.00
2681;BME280;1350;42.134;24.708;2024-01-16T06:57:45;98488.13;;;7.19;100.00
2681;BME280;1350;42.134;24.708;2024-01-16T07:00:16;98507.25;;;7.38;100.00
2681;BME280;1350;42.134;24.708;2024-01-16T07:02:43;98511.47;;;7.56;100.00
2681;BME280;1350;42.134;24.708;2024-01-16T07:05:10;98537.34;;;7.49;100.00
2681;BME280;1350;42.134;24.708;2024-01-16T07:07:37;98542.25;;;7.55;100.00
2681;BME280;1350;42.134;24.708;2024-01-16T07:10:05;98546.53;;;7.58;100.00
2681;BME280;1350;42.134;24.708;2024-01-16T07:12:33;98551.47;;;7.48;100.00
2681;BME280;1350;42.134;24.708;2024-01-16T07:15:00;98558.69;;;7.60;100.00
2681;BME280;1350;42.134;24.708;2024-01-16T07:17:55;98571.78;;;7.62;100.00
2681;BME280;1350;42.134;24.708;2024-01-16T07:20:43;98582.00;;;7.68;100.00
2681;BME280;1350;42.134;24.708;2024-01-16T07:23:11;98582.16;;;7.65;100.00
2681;BME280;1350;42.134;24.708;2024-01-16T07:25:37;98592.28;;;7.72;100.00
2681;BME280;1350;42.134;24.708;2024-01-16T07:28:05;98595.94;;;7.70;100.00
2681;BME280;1350;42.134;24.708;2024-01-16T07:30:32;98596.38;;;7.78;100.00
2681;BME280;1350;42.134;24.708;2024-01-16T07:33:02;98598.31;;;7.90;100.00
2681;BME280;1350;42.134;24.708;2024-01-16T07:35:29;98617.63;;;7.90;100.00
2681;BME280;1350;42.134;24.708;2024-01-16T07:37:56;98621.63;;;7.97;100.00
2681;BME280;1350;42.134;24.708;2024-01-16T07:40:23;98636.25;;;7.87;100.00
2681;BME280;1350;42.134;24.708;2024-01-16T07:42:50;98637.63;;;7.94;100.00
2681;BME280;1350;42.134;24.708;2024-01-16T07:45:17;98648.28;;;7.93;100.00
2681;BME280;1350;42.134;24.708;2024-01-16T07:47:44;98672.72;;;7.96;100.00
2681;BME280;1350;42.134;24.708;2024-01-16T07:50:13;98671.50;;;8.02;100.00
2681;BME280;1350;42.134;24.708;2024-01-16T07:52:40;98676.88;;;8.00;100.00
2681;BME280;1350;42.134;24.708;2024-01-16T07:55:07;98687.25;;;8.03;100.00
2681;BME280;1350;42.134;24.708;2024-01-16T07:57:34;98698.16;;;7.97;100.00
2681;BME280;1350;42.134;24.708;2024-01-16T08:00:01;98708.81;;;7.96;100.00
2681;BME280;1350;42.134;24.708;2024-01-16T08:02:32;98717.16;;;8.04;100.00
2681;BME280;1350;42.134;24.708;2024-01-16T08:04:59;98713.31;;;7.94;100.00
2681;BME280;1350;42.134;24.708;2024-01-16T08:07:28;98725.72;;;7.92;100.00
2681;BME280;1350;42.134;24.708;2024-01-16T08:09:55;98743.03;;;7.97;100.00
2681;BME280;1350;42.134;24.708;2024-01-16T08:12:22;98743.72;;;8.01;100.00
2681;BME280;1350;42.134;24.708;2024-01-16T08:14:49;98737.41;;;8.03;100.00
2681;BME280;1350;42.134;24.708;2024-01-16T08:17:15;98740.91;;;8.04;100.00
2681;BME280;1350;42.134;24.708;2024-01-16T08:19:43;98745.16;;;8.06;99.66
2681;BME280;1350;42.134;24.708;2024-01-16T08:22:10;98751.94;;;8.10;98.92
2681;BME280;1350;42.134;24.708;2024-01-16T08:24:38;98760.13;;;8.06;99.73
2681;BME280;1350;42.134;24.708;2024-01-16T08:27:05;98750.53;;;8.20;98.26
2681;BME280;1350;42.134;24.708;2024-01-16T08:29:32;98757.34;;;8.24;98.01
2681;BME280;1350;42.134;24.708;2024-01-16T08:31:59;98765.59;;;8.18;97.66
2681;BME280;1350;42.134;24.708;2024-01-16T08:34:26;98770.72;;;8.37;96.27
2681;BME280;1350;42.134;24.708;2024-01-16T08:36:53;98773.69;;;8.46;95.64
2681;BME280;1350;42.134;24.708;2024-01-16T08:39:22;98774.88;;;8.56;93.58
2681;BME280;1350;42.134;24.708;2024-01-16T08:41:50;98780.66;;;8.63;90.52
2681;BME280;1350;42.134;24.708;2024-01-16T08:44:19;98785.41;;;8.72;89.65
2681;BME280;1350;42.134;24.708;2024-01-16T08:46:46;98789.66;;;8.90;89.33
2681;BME280;1350;42.134;24.708;2024-01-16T08:49:13;98804.38;;;8.94;89.01
2681;BME280;1350;42.134;24.708;2024-01-16T08:51:40;98782.38;;;8.94;89.17
2681;BME280;1350;42.134;24.708;2024-01-16T08:54:07;98805.25;;;8.95;87.38
2681;BME280;1350;42.134;24.708;2024-01-16T08:56:34;98799.97;;;8.95;87.62
2681;BME280;1350;42.134;24.708;2024-01-16T08:59:02;98804.75;;;8.88;87.09
2681;BME280;1350;42.134;24.708;2024-01-16T09:01:29;98815.81;;;8.95;86.69
2681;BME280;1350;42.134;24.708;2024-01-16T09:03:56;98824.63;;;9.09;87.12
2681;BME280;1350;42.134;24.708;2024-01-16T09:06:24;98829.47;;;9.17;86.10
2681;BME280;1350;42.134;24.708;2024-01-16T09:08:51;98834.94;;;9.14;85.82
2681;BME280;1350;42.134;24.708;2024-01-16T09:11:18;98836.22;;;9.22;84.54
2681;BME280;1350;42.134;24.708;2024-01-16T09:13:47;98831.44;;;9.43;84.01
2681;BME280;1350;42.134;24.708;2024-01-16T09:16:15;98838.84;;;9.80;79.84
2681;BME280;1350;42.134;24.708;2024-01-16T09:18:42;98833.13;;;10.30;78.00
2681;BME280;1350;42.134;24.708;2024-01-16T09:21:09;98821.69;;;11.09;72.09
2681;BME280;1350;42.134;24.708;2024-01-16T09:23:37;98831.44;;;11.60;65.89
2681;BME280;1350;42.134;24.708;2024-01-16T09:26:04;98839.75;;;12.06;61.89
2681;BME280;1350;42.134;24.708;2024-01-16T09:28:31;98835.88;;;12.35;58.42
2681;BME280;1350;42.134;24.708;2024-01-16T09:30:58;98842.31;;;12.07;57.96
2681;BME280;1350;42.134;24.708;2024-01-16T09:33:27;98856.88;;;12.02;57.19
2681;BME280;1350;42.134;24.708;2024-01-16T09:35:54;98852.09;;;11.81;57.98
2681;BME280;1350;42.134;24.708;2024-01-16T09:38:21;98860.28;;;11.39;58.20
2681;BME280;1350;42.134;24.708;2024-01-16T09:40:48;98858.84;;;10.82;58.51
2681;BME280;1350;42.134;24.708;2024-01-16T09:43:16;98867.00;;;10.79;58.89
2681;BME280;1350;42.134;24.708;2024-01-16T09:45:45;98860.28;;;11.00;58.44
2681;BME280;1350;42.134;24.708;2024-01-16T09:48:14;98877.31;;;10.84;58.74
2681;BME280;1350;42.134;24.708;2024-01-16T09:50:42;98870.34;;;10.95;58.96
2681;BME280;1350;42.134;24.708;2024-01-16T09:53:09;98887.38;;;10.65;58.82
2681;BME280;1350;42.134;24.708;2024-01-16T09:55:37;98885.22;;;10.98;57.58
2681;BME280;1350;42.134;24.708;2024-01-16T09:58:05;98878.91;;;10.86;56.10
2681;BME280;1350;42.134;24.708;2024-01-16T10:00:37;98886.84;;;10.86;56.48
2681;BME280;1350;42.134;24.708;2024-01-16T10:03:06;98871.56;;;11.16;55.07
2681;BME280;1350;42.134;24.708;2024-01-16T10:05:33;98875.09;;;11.56;54.26
2681;BME280;1350;42.134;24.708;2024-01-16T10:08:03;98874.63;;;12.01;53.98
2681;BME280;1350;42.134;24.708;2024-01-16T10:10:30;98878.22;;;12.86;52.26
2681;BME280;1350;42.134;24.708;2024-01-16T10:12:58;98883.31;;;12.89;51.30
2681;BME280;1350;42.134;24.708;2024-01-16T10:15:26;98871.69;;;12.67;50.70
2681;BME280;1350;42.134;24.708;2024-01-16T10:17:53;98893.00;;;12.42;51.15
2681;BME280;1350;42.134;24.708;2024-01-16T10:20:32;98880.69;;;12.28;50.69
2681;BME280;1350;42.134;24.708;2024-01-16T10:22:59;98879.50;;;11.69;51.77
2681;BME280;1350;42.134;24.708;2024-01-16T10:25:30;98889.25;;;11.69;52.87
2681;BME280;1350;42.134;24.708;2024-01-16T10:28:04;98895.78;;;11.51;51.86
2681;BME280;1350;42.134;24.708;2024-01-16T10:30:33;98910.44;;;11.56;52.21
2681;BME280;1350;42.134;24.708;2024-01-16T10:33:13;98897.53;;;11.64;52.94
2681;BME280;1350;42.134;24.708;2024-01-16T10:35:41;98904.81;;;11.48;52.55
2681;BME280;1350;42.134;24.708;2024-01-16T10:38:08;98904.47;;;10.87;52.84
2681;BME280;1350;42.134;24.708;2024-01-16T10:40:37;98904.34;;;10.62;53.39
2681;BME280;1350;42.134;24.708;2024-01-16T10:43:04;98905.16;;;10.63;54.12
2681;BME280;1350;42.134;24.708;2024-01-16T10:45:32;98898.75;;;10.53;54.59
2681;BME280;1350;42.134;24.708;2024-01-16T10:48:03;98912.88;;;10.39;54.52
2681;BME280;1350;42.134;24.708;2024-01-16T10:50:31;98912.50;;;10.31;54.44
2681;BME280;1350;42.134;24.708;2024-01-16T10:53:00;98915.69;;;10.50;54.09
2681;BME280;1350;42.134;24.708;2024-01-16T10:55:28;98915.56;;;10.66;53.91
2681;BME280;1350;42.134;24.708;2024-01-16T10:57:57;98922.66;;;11.20;53.82
2681;BME280;1350;42.134;24.708;2024-01-16T11:00:27;98915.75;;;11.56;52.30
2681;BME280;1350;42.134;24.708;2024-01-16T11:02:59;98909.78;;;11.79;51.63
2681;BME280;1350;42.134;24.708;2024-01-16T11:05:28;98924.00;;;11.66;52.58
2681;BME280;1350;42.134;24.708;2024-01-16T11:07:59;98926.88;;;11.75;51.62
2681;BME280;1350;42.134;24.708;2024-01-16T11:10:29;98925.34;;;11.59;51.97
2681;BME280;1350;42.134;24.708;2024-01-16T11:13:00;98931.09;;;11.65;51.44
2681;BME280;1350;42.134;24.708;2024-01-16T11:15:27;98935.81;;;11.21;51.15
2681;BME280;1350;42.134;24.708;2024-01-16T11:17:55;98929.94;;;11.16;51.61
2681;BME280;1350;42.134;24.708;2024-01-16T11:20:23;98943.13;;;10.91;51.30
2681;BME280;1350;42.134;24.708;2024-01-16T11:22:51;98947.28;;;10.67;51.93
2681;BME280;1350;42.134;24.708;2024-01-16T11:25:20;98936.25;;;10.47;52.20
2681;BME280;1350;42.134;24.708;2024-01-16T11:27:47;98935.59;;;10.43;52.92
2681;BME280;1350;42.134;24.708;2024-01-16T11:30:29;98932.63;;;10.62;51.90
2681;BME280;1350;42.134;24.708;2024-01-16T11:32:56;98943.81;;;10.39;51.88
2681;BME280;1350;42.134;24.708;2024-01-16T11:35:31;98938.03;;;10.74;51.88
2681;BME280;1350;42.134;24.708;2024-01-16T11:38:04;98934.41;;;10.75;51.36
2681;BME280;1350;42.134;24.708;2024-01-16T11:40:35;98940.59;;;10.62;50.99
2681;BME280;1350;42.134;24.708;2024-01-16T11:43:35;98922.13;;;10.60;50.21
2681;BME280;1350;42.134;24.708;2024-01-16T11:46:05;98936.13;;;10.76;50.42
2681;BME280;1350;42.134;24.708;2024-01-16T11:48:33;98933.19;;;11.07;50.29
2681;BME280;1350;42.134;24.708;2024-01-16T11:51:00;98944.19;;;11.15;50.00
2681;BME280;1350;42.134;24.708;2024-01-16T11:53:37;98954.00;;;11.27;49.26
2681;BME280;1350;42.134;24.708;2024-01-16T11:56:33;98957.34;;;11.43;49.40
2681;BME280;1350;42.134;24.708;2024-01-16T11:59:18;98956.84;;;11.51;48.12
2681;BME280;1350;42.134;24.708;2024-01-16T12:01:58;98961.94;;;11.54;47.82
2681;BME280;1350;42.134;24.708;2024-01-16T12:04:25;98960.78;;;11.58;47.27
2681;BME280;1350;42.134;24.708;2024-01-16T12:06:59;98957.50;;;11.54;48.23
2681;BME280;1350;42.134;24.708;2024-01-16T12:09:28;98957.91;;;11.75;47.26
2681;BME280;1350;42.134;24.708;2024-01-16T12:11:59;98958.91;;;11.86;47.07
2681;BME280;1350;42.134;24.708;2024-01-16T12:14:26;98961.66;;;11.85;46.34
2681;BME280;1350;42.134;24.708;2024-01-16T12:17:08;98969.34;;;12.15;46.16
2681;BME280;1350;42.134;24.708;2024-01-16T12:19:35;98968.44;;;11.89;46.15
2681;BME280;1350;42.134;24.708;2024-01-16T12:22:02;98963.91;;;12.04;46.32
2681;BME280;1350;42.134;24.708;2024-01-16T12:24:29;98968.72;;;12.24;46.98
2681;BME280;1350;42.134;24.708;2024-01-16T12:26:57;98987.00;;;12.28;46.35
2681;BME280;1350;42.134;24.708;2024-01-16T12:29:24;98979.88;;;12.16;46.12
2681;BME280;1350;42.134;24.708;2024-01-16T12:32:06;98972.66;;;12.31;45.39
2681;BME280;1350;42.134;24.708;2024-01-16T12:34:34;98988.41;;;12.59;45.21
2681;BME280;1350;42.134;24.708;2024-01-16T12:37:04;98992.41;;;12.52;44.37
2681;BME280;1350;42.134;24.708;2024-01-16T12:39:31;98984.75;;;12.47;44.40
2681;BME280;1350;42.134;24.708;2024-01-16T12:41:58;98993.25;;;12.27;45.20
2681;BME280;1350;42.134;24.708;2024-01-16T12:44:27;99000.91;;;12.32;44.79
2681;BME280;1350;42.134;24.708;2024-01-16T12:46:54;99014.13;;;12.46;44.91
2681;BME280;1350;42.134;24.708;2024-01-16T12:49:23;99022.09;;;12.46;44.50
2681;BME280;1350;42.134;24.708;2024-01-16T12:51:50;99010.53;;;12.47;44.80
2681;BME280;1350;42.134;24.708;2024-01-16T12:54:19;99019.13;;;12.50;44.95
2681;BME280;1350;42.134;24.708;2024-01-16T12:56:47;99020.53;;;12.68;45.31
2681;BME280;1350;42.134;24.708;2024-01-16T12:59:15;99029.53;;;12.66;45.05
2681;BME280;1350;42.134;24.708;2024-01-16T13:01:44;99029.88;;;12.74;44.78
2681;BME280;1350;42.134;24.708;2024-01-16T13:04:12;99030.72;;;12.49;45.20
2681;BME280;1350;42.134;24.708;2024-01-16T13:06:41;99040.19;;;12.28;44.45
2681;BME280;1350;42.134;24.708;2024-01-16T13:09:10;99046.22;;;12.30;44.94
2681;BME280;1350;42.134;24.708;2024-01-16T13:11:48;99048.06;;;12.42;45.10
2681;BME280;1350;42.134;24.708;2024-01-16T13:14:16;99034.66;;;12.56;45.27
2681;BME280;1350;42.134;24.708;2024-01-16T13:16:43;99046.44;;;12.27;44.46
2681;BME280;1350;42.134;24.708;2024-01-16T13:19:10;99048.75;;;12.07;44.84